Woodward, Iowa
Current Conditions -  °F | °C
As of 2:55 PM on Tuesday 21 Oct 2014 (Local Time) from KPRO Reporting Station
Clear Clear  
Wind Chill: 68°   Ceiling: Unl
Heat Index: 68°   Visibility: 10mi
Dew Point: 43°   Wind: 8mph
Humidity: 41%   Direction: 120°ESE
Pressure: 30.1"   Gusts: NA
Location:  41.86°N, 93.92°W
Report Text: KPRO 211955Z AUTO 12007KT 10SM CLR 20/06 A3010 RMK AO2 T01980061
Loading
Personal Weather Stations






























Interactive Weather Map
Tropical Storm Tracking
New forecast layout! Learn more

10-Day Weather Forecast

Advertisements
Track Severe Weather on mobile